createdAt,value
2019-02-11T00:02:17.261Z,71.83
2019-02-11T00:04:50.575Z,70.73
2019-02-11T00:07:21.360Z,70.66
2019-02-11T00:09:51.316Z,70.33
2019-02-11T00:12:20.957Z,70.10
2019-02-11T00:14:50.598Z,70.15
2019-02-11T00:17:21.260Z,69.88
2019-02-11T00:19:52.689Z,70.02
2019-02-11T00:22:22.396Z,70.38
2019-02-11T00:24:51.516Z,70.52
2019-02-11T00:27:21.019Z,70.76
2019-02-11T00:29:50.795Z,70.83
2019-02-11T00:32:21.562Z,70.89
2019-02-11T00:34:52.012Z,70.94
2019-02-11T00:37:21.826Z,70.71
2019-02-11T00:39:52.619Z,70.76
2019-02-11T00:42:23.244Z,71.34
2019-02-11T00:44:53.667Z,70.08
2019-02-11T00:47:23.684Z,70.04
2019-02-11T00:49:54.572Z,70.14
2019-02-11T00:52:24.867Z,70.33
2019-02-11T00:54:56.202Z,69.96
2019-02-11T00:57:27.417Z,69.97
2019-02-11T00:59:58.717Z,70.17
2019-02-11T01:02:30.908Z,70.72
2019-02-11T01:05:01.577Z,70.05
2019-02-11T01:07:31.176Z,70.44
2019-02-11T01:10:03.978Z,70.08
2019-02-11T01:12:34.639Z,69.72
2019-02-11T01:15:04.804Z,69.47
2019-02-11T01:17:35.563Z,69.72
2019-02-11T01:20:07.440Z,69.31
2019-02-11T01:22:37.857Z,69.71
2019-02-11T01:25:08.882Z,69.77
2019-02-11T01:27:37.154Z,69.33
2019-02-11T01:30:09.547Z,69.09
2019-02-11T01:32:38.603Z,68.96
2019-02-11T01:35:08.293Z,68.68
2019-02-11T01:37:39.649Z,69.05
2019-02-11T01:40:11.584Z,68.98
2019-02-11T01:42:42.157Z,68.95
2019-02-11T01:45:12.591Z,68.61
2019-02-11T01:47:43.930Z,68.92
2019-02-11T01:50:13.048Z,68.81
2019-02-11T01:52:42.847Z,68.29
2019-02-11T01:55:13.203Z,68.51
2019-02-11T01:57:44.580Z,68.69
2019-02-11T02:00:15.501Z,68.38
2019-02-11T02:02:48.715Z,68.33
2019-02-11T02:05:19.276Z,68.96
2019-02-11T02:07:49.662Z,69.45
2019-02-11T02:10:20.971Z,69.50
2019-02-11T02:12:52.389Z,69.29
2019-02-11T02:15:22.956Z,70.06
2019-02-11T02:17:52.974Z,70.40
2019-02-11T02:20:24.304Z,70.17
2019-02-11T02:22:54.895Z,70.66
2019-02-11T02:25:24.701Z,70.40
2019-02-11T02:27:55.052Z,70.45
2019-02-11T02:30:25.353Z,70.22
2019-02-11T02:32:55.210Z,70.04
2019-02-11T02:35:26.445Z,70.84
2019-02-11T02:37:59.755Z,70.73
2019-02-11T02:40:30.318Z,70.75
2019-02-11T02:43:00.163Z,70.51
2019-02-11T02:45:31.468Z,70.85
2019-02-11T02:48:01.114Z,70.51
2019-02-11T02:50:32.446Z,70.44
2019-02-11T02:53:03.313Z,70.39
2019-02-11T02:55:33.128Z,71.00
2019-02-11T02:58:04.531Z,70.90
2019-02-11T03:00:35.274Z,71.09
2019-02-11T03:03:05.665Z,71.30
2019-02-11T03:05:36.032Z,71.12
2019-02-11T03:08:06.431Z,70.77
2019-02-11T03:10:35.236Z,70.77
2019-02-11T03:13:06.443Z,70.87
2019-02-11T03:15:36.097Z,70.73
2019-02-11T03:18:06.163Z,71.04
2019-02-11T03:20:37.421Z,70.19
2019-02-11T03:23:08.048Z,70.35
2019-02-11T03:25:37.890Z,70.43
2019-02-11T03:28:09.002Z,70.11
2019-02-11T03:30:40.228Z,70.39
2019-02-11T03:33:10.020Z,70.85
2019-02-11T03:35:39.122Z,70.11
2019-02-11T03:38:10.973Z,71.11
2019-02-11T03:40:41.756Z,71.05
2019-02-11T03:43:11.587Z,71.21
2019-02-11T03:45:44.275Z,71.56
2019-02-11T03:48:15.090Z,71.66
2019-02-11T03:50:45.731Z,71.00
2019-02-11T03:53:14.231Z,70.89
2019-02-11T03:55:45.004Z,71.28
2019-02-11T03:58:15.438Z,71.22
2019-02-11T04:00:45.056Z,70.99
2019-02-11T04:03:15.787Z,70.67
2019-02-11T04:05:48.464Z,71.00
2019-02-11T04:08:19.019Z,71.56
2019-02-11T04:10:50.378Z,71.59
2019-02-11T04:13:20.971Z,72.39
2019-02-11T04:15:51.365Z,72.74
2019-02-11T04:18:21.265Z,72.86
2019-02-11T04:20:50.343Z,73.09
2019-02-11T04:23:21.679Z,73.58
2019-02-11T04:25:51.325Z,73.67
2019-02-11T04:28:22.442Z,74.10
2019-02-11T04:30:52.097Z,74.54
2019-02-11T04:33:22.898Z,74.83
2019-02-11T04:35:53.216Z,76.50
2019-02-11T04:38:21.706Z,76.35
2019-02-11T04:40:50.647Z,77.00
2019-02-11T04:43:19.756Z,77.11
2019-02-11T04:45:51.138Z,78.59
2019-02-11T04:48:22.442Z,77.90
2019-02-11T04:50:53.231Z,78.67
2019-02-11T04:53:23.984Z,79.06
2019-02-11T04:55:54.022Z,79.49
2019-02-11T04:58:25.258Z,79.39
2019-02-11T05:00:56.395Z,79.74
2019-02-11T05:03:29.266Z,80.23
2019-02-11T05:05:59.344Z,80.64
2019-02-11T05:08:30.435Z,80.10
2019-02-11T05:11:01.003Z,80.48
2019-02-11T05:13:31.021Z,80.50
2019-02-11T05:16:02.367Z,81.10
2019-02-11T05:18:32.910Z,80.66
2019-02-11T05:21:02.083Z,80.90
2019-02-11T05:23:34.316Z,80.97
2019-02-11T05:26:04.930Z,81.35
2019-02-11T05:28:36.112Z,81.29
2019-02-11T05:31:07.529Z,81.38
2019-02-11T05:33:38.190Z,81.04
2019-02-11T05:36:09.489Z,81.62
2019-02-11T05:38:40.064Z,81.51
2019-02-11T05:41:11.510Z,81.92
2019-02-11T05:43:41.170Z,81.74
2019-02-11T05:46:11.501Z,82.18
2019-02-11T05:48:41.150Z,82.55
2019-02-11T05:51:11.490Z,82.19
2019-02-11T05:53:41.169Z,81.98
2019-02-11T05:56:11.925Z,81.84
2019-02-11T05:58:43.244Z,81.52
2019-02-11T06:01:12.834Z,81.71
2019-02-11T06:03:42.861Z,81.71
2019-02-11T06:06:12.875Z,81.54
2019-02-11T06:08:46.099Z,81.33
2019-02-11T06:11:17.297Z,81.67
2019-02-11T06:13:47.307Z,81.19
2019-02-11T06:16:17.894Z,81.47
2019-02-11T06:18:49.295Z,81.42
2019-02-11T06:21:19.647Z,81.10
2019-02-11T06:23:52.300Z,80.93
2019-02-11T06:26:22.307Z,80.64
2019-02-11T06:28:51.840Z,81.38
2019-02-11T06:31:20.901Z,81.54
2019-02-11T06:33:49.980Z,81.36
2019-02-11T06:36:19.041Z,81.64
2019-02-11T06:38:47.563Z,81.49
2019-02-11T06:41:15.809Z,81.76
2019-02-11T06:43:44.904Z,81.54
2019-02-11T06:46:15.483Z,81.63
2019-02-11T06:48:48.240Z,81.77
2019-02-11T06:51:17.882Z,81.97
2019-02-11T06:53:48.293Z,81.69
2019-02-11T06:56:18.111Z,81.73
2019-02-11T06:58:48.495Z,81.44
2019-02-11T07:01:19.243Z,81.52
2019-02-11T07:03:49.872Z,81.75
2019-02-11T07:06:21.194Z,81.66
2019-02-11T07:08:52.748Z,81.64
2019-02-11T07:11:24.174Z,81.59
2019-02-11T07:13:57.323Z,81.38
2019-02-11T07:16:27.919Z,81.47
2019-02-11T07:18:59.185Z,81.18
2019-02-11T07:21:28.803Z,80.92
2019-02-11T07:23:59.597Z,80.96
2019-02-11T07:26:32.399Z,80.80
2019-02-11T07:29:02.880Z,80.84
2019-02-11T07:31:33.163Z,80.64
2019-02-11T07:34:02.980Z,80.67
2019-02-11T07:36:34.237Z,80.40
2019-02-11T07:39:06.319Z,80.44
2019-02-11T07:41:37.700Z,79.34
2019-02-11T07:44:11.519Z,78.74
2019-02-11T07:46:42.620Z,78.74
2019-02-11T07:49:13.415Z,78.70
2019-02-11T07:51:44.650Z,78.13
2019-02-11T07:54:16.938Z,77.72
2019-02-11T07:56:48.192Z,77.39
2019-02-11T07:59:17.794Z,77.90
2019-02-11T08:01:46.892Z,77.54
2019-02-11T08:04:18.218Z,76.79
2019-02-11T08:06:50.283Z,77.25
2019-02-11T08:09:19.234Z,77.04
2019-02-11T08:11:51.691Z,77.07
2019-02-11T08:14:22.081Z,76.97
2019-02-11T08:16:53.518Z,77.48
2019-02-11T08:19:23.804Z,77.37
2019-02-11T08:21:53.874Z,77.44
2019-02-11T08:24:23.708Z,77.13
2019-02-11T08:26:54.956Z,76.77
2019-02-11T08:29:23.910Z,76.16
2019-02-11T08:31:54.768Z,76.68
2019-02-11T08:34:28.650Z,76.50
2019-02-11T08:36:58.733Z,76.51
2019-02-11T08:39:31.533Z,75.85
2019-02-11T08:42:03.236Z,75.70
2019-02-11T08:44:33.655Z,75.43
2019-02-11T08:47:05.103Z,75.40
2019-02-11T08:49:34.716Z,75.38
2019-02-11T08:52:04.587Z,75.72
2019-02-11T08:54:33.845Z,75.95
2019-02-11T08:57:03.932Z,75.45
2019-02-11T08:59:33.225Z,75.58
2019-02-11T09:02:04.827Z,75.25
2019-02-11T09:04:37.259Z,75.26
2019-02-11T09:07:07.104Z,75.66
2019-02-11T09:09:35.590Z,74.99
2019-02-11T09:12:03.873Z,75.42
2019-02-11T09:14:33.423Z,75.04
2019-02-11T09:17:10.261Z,74.80
2019-02-11T09:19:39.693Z,74.85
2019-02-11T09:22:10.109Z,74.88
2019-02-11T09:24:40.687Z,73.91
2019-02-11T09:27:09.706Z,73.78
2019-02-11T09:29:40.140Z,74.16
2019-02-11T09:32:10.531Z,73.81
2019-02-11T09:34:43.051Z,73.69
2019-02-11T09:37:12.894Z,73.64
2019-02-11T09:39:43.224Z,72.98
2019-02-11T09:42:12.918Z,72.67
2019-02-11T09:44:42.985Z,72.62
2019-02-11T09:47:13.004Z,72.49
2019-02-11T09:49:44.236Z,72.45
2019-02-11T09:52:16.517Z,72.67
2019-02-11T09:54:47.277Z,72.86
2019-02-11T09:57:20.075Z,73.30
2019-02-11T09:59:52.299Z,72.61
2019-02-11T10:02:21.823Z,72.85
2019-02-11T10:04:53.162Z,72.93
2019-02-11T10:07:22.756Z,72.54
2019-02-11T10:09:53.050Z,72.73
2019-02-11T10:12:23.937Z,72.21
2019-02-11T10:14:55.300Z,71.98
2019-02-11T10:17:29.800Z,72.37
2019-02-11T10:19:58.209Z,71.58
2019-02-11T10:22:28.481Z,71.85
2019-02-11T10:24:59.344Z,71.45
2019-02-11T10:27:30.092Z,71.18
2019-02-11T10:30:00.719Z,71.35
2019-02-11T10:32:32.010Z,70.57
2019-02-11T10:35:02.799Z,70.09
2019-02-11T10:37:34.129Z,70.68
2019-02-11T10:40:04.140Z,70.93
2019-02-11T10:42:34.143Z,70.95
2019-02-11T10:45:05.071Z,71.55
2019-02-11T10:47:36.329Z,71.26
2019-02-11T10:50:08.558Z,71.63
2019-02-11T10:52:39.179Z,71.59
2019-02-11T10:55:15.007Z,71.66
2019-02-11T10:57:45.161Z,71.42
2019-02-11T11:00:18.442Z,71.30
2019-02-11T11:02:49.087Z,71.39
2019-02-11T11:05:18.715Z,72.07
2019-02-11T11:07:49.370Z,72.36
2019-02-11T11:10:25.002Z,72.10
2019-02-11T11:12:55.809Z,71.56
2019-02-11T11:15:28.958Z,71.20
2019-02-11T11:17:59.105Z,70.87
2019-02-11T11:20:29.548Z,71.61
2019-02-11T11:22:57.797Z,71.60
2019-02-11T11:25:29.359Z,71.06
2019-02-11T11:28:00.110Z,71.09
2019-02-11T11:30:29.764Z,71.18
2019-02-11T11:33:00.167Z,71.23
2019-02-11T11:35:29.761Z,69.54
2019-02-11T11:38:01.067Z,68.69
2019-02-11T11:40:32.321Z,67.90
2019-02-11T11:43:04.874Z,67.55
2019-02-11T11:45:36.099Z,66.93
2019-02-11T11:48:06.669Z,66.27
2019-02-11T11:50:37.970Z,66.14
2019-02-11T11:53:09.342Z,65.38
2019-02-11T11:55:38.955Z,65.47
2019-02-11T11:58:09.735Z,66.41
2019-02-11T12:00:41.088Z,66.25
2019-02-11T12:03:11.499Z,65.79
2019-02-11T12:05:40.492Z,65.42
2019-02-11T12:08:10.266Z,65.63
2019-02-11T12:10:41.035Z,65.61
2019-02-11T12:13:22.226Z,64.29
2019-02-11T12:15:42.786Z,64.33
2019-02-11T12:18:11.840Z,64.67
2019-02-11T12:20:40.909Z,63.51
2019-02-11T12:23:12.820Z,62.66
2019-02-11T12:25:43.188Z,62.43
2019-02-11T12:28:15.763Z,62.42
2019-02-11T12:30:45.543Z,63.93
2019-02-11T12:33:16.902Z,64.86
2019-02-11T12:35:46.493Z,66.41
2019-02-11T12:38:16.908Z,66.30
2019-02-11T12:40:46.002Z,68.00
2019-02-11T12:43:16.429Z,70.45
2019-02-11T12:45:47.584Z,71.64
2019-02-11T12:48:17.506Z,71.31
2019-02-11T12:50:48.850Z,72.49
2019-02-11T12:53:18.580Z,71.82
2019-02-11T12:55:51.700Z,70.41
2019-02-11T12:58:22.085Z,71.19
2019-02-11T13:00:52.859Z,71.20
2019-02-11T13:03:23.459Z,71.69
2019-02-11T13:05:53.176Z,71.20
2019-02-11T13:08:22.272Z,68.45
2019-02-11T13:10:54.843Z,68.35
2019-02-11T13:13:25.598Z,67.79
2019-02-11T13:16:01.028Z,67.37
2019-02-11T13:18:26.921Z,67.27
2019-02-11T13:20:56.676Z,67.07
2019-02-11T13:23:27.154Z,66.99
2019-02-11T13:25:56.458Z,67.40
2019-02-11T13:28:26.771Z,66.04
2019-02-11T13:30:55.798Z,66.16
2019-02-11T13:33:24.912Z,65.92
2019-02-11T13:35:55.579Z,66.34
2019-02-11T13:38:24.654Z,67.21
2019-02-11T13:40:56.017Z,67.67
2019-02-11T13:43:26.800Z,68.18
2019-02-11T13:45:56.475Z,69.88
2019-02-11T13:48:26.935Z,71.85
2019-02-11T13:50:56.376Z,73.07
2019-02-11T13:53:25.988Z,74.09
2019-02-11T13:55:55.834Z,73.75
2019-02-11T13:58:25.586Z,73.92
2019-02-11T14:00:57.025Z,73.25
2019-02-11T14:03:26.789Z,74.31
2019-02-11T14:05:57.452Z,74.26
2019-02-11T14:08:27.351Z,74.13
2019-02-11T14:10:58.067Z,74.68
2019-02-11T14:13:30.617Z,74.29
2019-02-11T14:16:02.379Z,74.08
2019-02-11T14:18:32.160Z,74.20
2019-02-11T14:21:03.506Z,74.55
2019-02-11T14:23:33.876Z,74.45
2019-02-11T14:26:03.540Z,73.55
2019-02-11T14:28:33.337Z,74.15
2019-02-11T14:31:04.828Z,74.04
2019-02-11T14:33:35.564Z,73.32
2019-02-11T14:36:07.708Z,73.04
2019-02-11T14:38:38.551Z,72.98
2019-02-11T14:41:09.893Z,73.15
2019-02-11T14:43:39.508Z,73.37
2019-02-11T14:46:09.839Z,73.26
2019-02-11T14:48:39.456Z,73.48
2019-02-11T14:51:08.550Z,72.68
2019-02-11T14:53:38.992Z,73.04
2019-02-11T14:56:09.848Z,73.05
2019-02-11T14:58:38.909Z,72.97
2019-02-11T15:01:09.007Z,72.99
2019-02-11T15:03:39.340Z,72.96
2019-02-11T15:06:09.664Z,73.12
2019-02-11T15:08:42.860Z,72.92
2019-02-11T15:11:13.522Z,73.07
2019-02-11T15:13:43.903Z,72.96
2019-02-11T15:16:14.497Z,72.10
2019-02-11T15:18:45.739Z,72.17
2019-02-11T15:21:16.502Z,72.18
2019-02-11T15:23:49.712Z,72.47
2019-02-11T15:26:19.366Z,72.26
2019-02-11T15:28:50.640Z,72.22
2019-02-11T15:31:22.015Z,72.07
2019-02-11T15:33:51.838Z,71.83
2019-02-11T15:36:22.205Z,72.14
2019-02-11T15:38:51.837Z,71.89
2019-02-11T15:41:21.312Z,71.80
2019-02-11T15:43:54.636Z,71.60
2019-02-11T15:46:24.989Z,71.80
2019-02-11T15:48:55.391Z,72.09
2019-02-11T15:51:27.696Z,71.85
2019-02-11T15:53:58.479Z,71.64
2019-02-11T15:56:29.298Z,71.80
2019-02-11T15:59:01.547Z,71.27
2019-02-11T16:01:32.895Z,71.35
2019-02-11T16:04:02.743Z,71.20
2019-02-11T16:06:37.877Z,70.72
2019-02-11T16:09:06.573Z,71.07
2019-02-11T16:11:36.420Z,71.00
2019-02-11T16:14:06.277Z,70.98
2019-02-11T16:16:36.574Z,70.87
2019-02-11T16:19:05.119Z,71.36
2019-02-11T16:21:33.372Z,71.34
2019-02-11T16:24:03.374Z,71.21
2019-02-11T16:26:32.478Z,71.09
2019-02-11T16:29:02.729Z,71.03
2019-02-11T16:31:33.313Z,70.65
2019-02-11T16:34:04.753Z,70.63
2019-02-11T16:36:35.382Z,70.64
2019-02-11T16:39:05.766Z,70.76
2019-02-11T16:41:35.582Z,70.54
2019-02-11T16:44:04.091Z,70.77
2019-02-11T16:46:32.361Z,70.94
2019-02-11T16:49:03.648Z,71.00
2019-02-11T16:51:34.225Z,70.91
2019-02-11T16:54:05.627Z,71.16
2019-02-11T16:56:36.058Z,71.06
2019-02-11T16:59:05.354Z,71.61
2019-02-11T17:01:36.688Z,71.60
2019-02-11T17:04:07.466Z,71.71
2019-02-11T17:06:38.848Z,72.30
2019-02-11T17:09:11.533Z,72.79
2019-02-11T17:11:41.518Z,73.70
2019-02-11T17:14:14.190Z,73.25
2019-02-11T17:16:47.407Z,73.62
2019-02-11T17:19:17.694Z,73.81
2019-02-11T17:21:47.329Z,73.76
2019-02-11T17:24:16.959Z,73.99
2019-02-11T17:26:46.927Z,73.55
2019-02-11T17:29:17.389Z,73.91
2019-02-11T17:31:47.013Z,73.70
2019-02-11T17:34:17.581Z,73.48
2019-02-11T17:36:49.784Z,73.63
2019-02-11T17:39:20.589Z,73.34
2019-02-11T17:41:51.052Z,73.22
2019-02-11T17:44:22.453Z,73.62
2019-02-11T17:46:52.773Z,73.35
2019-02-11T17:49:24.070Z,74.03
2019-02-11T17:51:55.553Z,73.80
2019-02-11T17:54:24.609Z,73.79
2019-02-11T17:56:54.964Z,73.42
2019-02-11T17:59:26.412Z,73.95
2019-02-11T18:01:57.243Z,74.16
2019-02-11T18:04:30.476Z,74.22
2019-02-11T18:07:01.102Z,74.20
2019-02-11T18:09:32.428Z,74.12
2019-02-11T18:12:03.756Z,74.32
2019-02-11T18:14:34.529Z,73.85
2019-02-11T18:17:04.852Z,73.94
2019-02-11T18:19:33.886Z,74.11
2019-02-11T18:22:04.211Z,73.57
2019-02-11T18:24:37.451Z,73.87
2019-02-11T18:27:08.271Z,74.23
2019-02-11T18:29:41.455Z,74.07
2019-02-11T18:32:12.269Z,73.58
2019-02-11T18:34:41.351Z,74.07
2019-02-11T18:37:14.553Z,74.42
2019-02-11T18:39:44.972Z,74.60
2019-02-11T18:42:14.874Z,74.71
2019-02-11T18:44:45.243Z,74.78
2019-02-11T18:47:16.595Z,74.71
2019-02-11T18:49:47.183Z,74.46
2019-02-11T18:52:17.196Z,74.45
2019-02-11T18:54:49.994Z,74.47
2019-02-11T18:57:21.744Z,74.49
2019-02-11T18:59:52.273Z,74.40
2019-02-11T19:02:21.348Z,74.37
2019-02-11T19:04:51.171Z,74.83
2019-02-11T19:07:22.573Z,74.88
2019-02-11T19:09:54.629Z,75.57
2019-02-11T19:12:25.018Z,76.23
2019-02-11T19:14:56.346Z,75.56
2019-02-11T19:17:27.669Z,76.31
2019-02-11T19:19:58.411Z,75.54
2019-02-11T19:22:28.258Z,75.46
2019-02-11T19:24:59.539Z,75.20
2019-02-11T19:27:29.185Z,74.82
2019-02-11T19:30:00.501Z,74.39
2019-02-11T19:32:30.636Z,73.92
2019-02-11T19:35:01.271Z,74.27
2019-02-11T19:37:31.058Z,73.73
2019-02-11T19:40:02.381Z,73.50
2019-02-11T19:42:32.283Z,73.41
2019-02-11T19:45:01.867Z,72.76
2019-02-11T19:47:33.300Z,72.78
2019-02-11T19:50:04.117Z,72.82
2019-02-11T19:52:35.537Z,72.76
2019-02-11T19:55:07.691Z,72.90
2019-02-11T19:57:38.261Z,74.12
2019-02-11T20:00:23.660Z,74.67
2019-02-11T20:02:54.288Z,74.41
2019-02-11T20:05:24.703Z,74.26
2019-02-11T20:07:55.471Z,74.72
2019-02-11T20:10:26.254Z,74.65
2019-02-11T20:12:56.621Z,74.49
2019-02-11T20:15:28.941Z,74.44
2019-02-11T20:17:59.410Z,74.54
2019-02-11T20:20:28.883Z,74.90
2019-02-11T20:23:00.234Z,74.94
2019-02-11T20:25:31.503Z,75.59
2019-02-11T20:28:01.206Z,76.08
2019-02-11T20:30:31.333Z,75.98
2019-02-11T20:33:00.196Z,76.02
2019-02-11T20:35:31.407Z,76.38
2019-02-11T20:38:01.253Z,76.36
2019-02-11T20:40:30.288Z,76.35
2019-02-11T20:43:00.977Z,76.37
2019-02-11T20:45:31.310Z,76.55
2019-02-11T20:48:01.160Z,76.54
2019-02-11T20:50:32.575Z,76.51
2019-02-11T20:53:03.454Z,76.84
2019-02-11T20:55:36.651Z,77.12
2019-02-11T20:58:08.080Z,76.89
2019-02-11T21:00:39.503Z,76.71
2019-02-11T21:03:10.731Z,76.72
2019-02-11T21:05:40.413Z,76.52
2019-02-11T21:08:10.723Z,76.68
2019-02-11T21:10:41.116Z,76.03
2019-02-11T21:13:12.470Z,75.69
2019-02-11T21:15:42.292Z,75.47
2019-02-11T21:18:11.941Z,75.25
2019-02-11T21:20:44.304Z,74.97
2019-02-11T21:23:14.139Z,74.67
2019-02-11T21:25:42.384Z,74.69
2019-02-11T21:28:12.173Z,74.84
2019-02-11T21:30:45.554Z,74.89
2019-02-11T21:33:17.013Z,74.90
2019-02-11T21:35:46.988Z,75.12
2019-02-11T21:38:18.811Z,74.86
2019-02-11T21:40:48.781Z,74.63
2019-02-11T21:43:20.893Z,74.28
2019-02-11T21:45:54.227Z,73.98
2019-02-11T21:48:25.009Z,73.84
2019-02-11T21:50:56.331Z,73.81
2019-02-11T21:53:26.926Z,74.05
2019-02-11T21:55:57.292Z,74.15
2019-02-11T21:58:26.941Z,74.31
2019-02-11T22:01:02.318Z,74.66
2019-02-11T22:03:30.349Z,75.00
2019-02-11T22:06:02.625Z,74.76
2019-02-11T22:08:33.312Z,75.40
2019-02-11T22:11:02.945Z,75.53
2019-02-11T22:13:33.757Z,76.04
2019-02-11T22:16:04.124Z,76.07
2019-02-11T22:18:33.094Z,76.21
2019-02-11T22:21:03.084Z,76.62
2019-02-11T22:23:34.352Z,75.98
2019-02-11T22:26:04.912Z,76.16
2019-02-11T22:28:34.926Z,76.44
2019-02-11T22:31:04.961Z,76.14
2019-02-11T22:33:35.467Z,76.37
2019-02-11T22:36:08.017Z,76.14
2019-02-11T22:38:39.396Z,76.25
2019-02-11T22:41:10.214Z,76.37
2019-02-11T22:43:40.638Z,76.29
2019-02-11T22:46:11.969Z,77.49
2019-02-11T22:48:42.193Z,76.45
2019-02-11T22:51:12.526Z,76.20
2019-02-11T22:53:43.899Z,75.88
2019-02-11T22:56:15.312Z,76.39
2019-02-11T22:58:47.954Z,76.48
2019-02-11T23:01:17.633Z,76.19
2019-02-11T23:03:46.896Z,76.29
2019-02-11T23:06:17.313Z,76.13
2019-02-11T23:08:47.888Z,76.08
2019-02-11T23:11:17.011Z,76.03
2019-02-11T23:13:48.331Z,76.37
2019-02-11T23:16:19.116Z,76.28
2019-02-11T23:18:48.733Z,76.23
2019-02-11T23:21:20.251Z,76.68
2019-02-11T23:23:50.053Z,76.44
2019-02-11T23:26:20.845Z,76.48
2019-02-11T23:28:53.870Z,76.69
2019-02-11T23:31:25.285Z,76.58
2019-02-11T23:33:55.101Z,76.80
2019-02-11T23:36:25.676Z,76.90
2019-02-11T23:38:57.006Z,77.10
2019-02-11T23:41:28.381Z,77.55
2019-02-11T23:43:58.957Z,77.52
2019-02-11T23:46:30.337Z,77.40
2019-02-11T23:49:00.700Z,77.20
2019-02-11T23:51:32.137Z,77.37
2019-02-11T23:54:01.827Z,77.04
2019-02-11T23:56:33.196Z,77.13
2019-02-11T23:59:03.637Z,76.50
